x

Neah Bay, - 6nm North Of Cape Flattery, Wa (traffic Separation Lighted Buoy) (46087) Wave Buoy

11:20 - Mon 5th Dec 2016 All times are PST. -8 hours from GMT.

  • Sig Wave height 6.6ft
  • Swell Direction
  • Peak Period 14s
  • Average Period 9s
  • Wind
    11mph, 16mph gusts
  • Sea Temp 51°f
  • Luft Temp 40°f
  • Sea Pressure 1017mb
  • Neah Bay, - 6nm North Of Cape Flattery, Wa     (traffic Separation Lighted Buoy)
  • Neah Bay, - 6nm North Of Cape Flattery, Wa     (traffic Separation Lighted Buoy)

More Historic Weather Station data

Upgrade to MSW Pro to gain access to the past 30 days of data for over 8000 Wavebouys and Weather Stations around the globe.

Join Pro

Comparision Forecast

View Surf forecast
   
Mo 12/05 11:20 6.5ft 14s 9s 11 16 mph 1017mb 51f 40f
10:50 7ft 13s 9s 13 18 mph 1017mb 51f 40f
10:20 7ft 14s 9s 9 13 mph 1016.8mb 51f 40f
9:50 7ft 13s 9s 9 11 mph 1016.8mb 51f 40f
9:20 8ft 13s 9s 7 13 mph 1016.5mb 51f 40f
8:50 6.5ft 13s 9s 4 9 mph 1016.4mb 51f 40f
8:20 7.5ft 14s 9s 4 9 mph 1016.2mb 51f 39f
7:50 8ft 15s 9s 7 11 mph 1016mb 51f 39f
7:20 8ft 12s 9s 7 11 mph 1016mb 51f 39f
6:50 8ft 15s 9s 9 13 mph 1016mb 51f 39f
6:20 8.5ft 11s 9s 9 13 mph 1015.8mb 51f 39f
5:50 8.5ft 11s 9s 9 13 mph 1015.7mb 50f 39f
5:20 7.5ft 11s 8s 9 11 mph 1015.7mb 50f 38f
4:50 8ft 11s 9s 11 13 mph 1015.7mb 50f 37f
4:20 9ft 12s 9s 7 18 mph 1015.8mb 50f 39f
3:50 9.5ft 12s 9s 2 7 mph 1015.7mb 51f 38f
3:20 9.5ft 12s 9s 7 13 mph 1015.4mb 51f 41f
2:50 10ft 13s 10s 11 16 mph 1015mb 51f 42f
2:20 8.5ft 12s 9s 7 11 mph 1015.3mb 51f 42f
1:50 9ft 13s 9s 7 11 mph 1015.6mb 51f 43f
1:20 7.5ft 12s 8s 7 9 mph 1015.8mb 51f 42f
12:50 7.5ft 13s 8s 7 11 mph 1015.9mb 51f 42f
12:20 9ft 11s 9s 11 13 mph 1016mb 51f 42f
11:50 7.5ft 11s 8s 13 18 mph 1016mb 51f 42f
11:20 8ft 13s 8s 4 7 mph 1016.3mb 51f 42f
10:50 7.5ft 11s 8s 4 7 mph 1016.4mb 51f 42f
10:20 8ft 13s 9s 7 11 mph 1016.5mb 51f 41f
9:50 8ft 13s 9s 4 11 mph 1016.4mb 51f 42f
9:20 8ft 14s 9s 2 7 mph 1016.4mb 51f 42f
8:50 7ft 9s 8s 7 11 mph 1016.4mb 51f 42f
8:20 8ft 12s 9s 4 9 mph 1016.2mb 51f 41f
7:50 7.5ft 14s 9s 9 13 mph 1016.2mb 51f 41f
7:20 8ft 10s 8s 4 9 mph 1016.3mb 51f 41f
6:50 8ft 13s 8s 4 7 mph 1016mb 51f 39f
6:20 7.5ft 13s 8s 11 16 mph 1016.6mb 51f 39f
5:50 9ft 11s 8s 11 13 mph 1016.4mb 51f 39f
5:20 7.5ft 13s 8s 9 13 mph 1016.6mb 51f 40f
4:50 8ft 13s 8s 11 16 mph 1016.7mb 51f 38f
4:20 8ft 13s 8s 11 16 mph 1016.8mb 51f 38f
3:50 9ft 14s 8s 7 13 mph 1017.3mb 51f 38f
3:20 10ft 14s 9s 2 11 mph 1017.6mb 51f 37f
2:50 9ft 11s 8s 13 20 mph 1018.1mb 51f 37f
2:20 10ft 12s 8s 13 18 mph 1017.8mb 51f 39f
1:50 9.5ft 13s 9s 18 20 mph 1017.6mb 51f 39f
1:20 10ft 12s 9s 13 18 mph 1017.9mb 51f 41f
12:50 9.5ft 14s 9s 2 7 mph 1018.4mb 51f 40f
12:20 10.5ft 11s 9s  -  4 mph 1018.8mb 51f 40f
So 12/04 11:50 10.5ft 13s 9s 9 16 mph 1019.2mb 51f 40f
11:20 10ft 12s 9s 9 16 mph 1019mb 51f 43f
10:50 10.5ft 14s 9s 11 16 mph 1019.3mb 51f 44f
10:20 10ft 12s 9s 11 16 mph 1019.3mb 51f 43f
9:50 10ft 13s 9s 11 16 mph 1019.2mb 51f 43f
9:20 10ft 14s 9s 18 22 mph 1018.9mb 51f 43f
8:50 10ft 11s 9s 13 25 mph 1018.9mb 51f 45f
8:20 10ft 13s 9s 11 18 mph 1019mb 51f 45f
7:50 10ft 13s 9s 13 18 mph 1019mb 51f 44f
7:20 10ft 12s 8s 13 18 mph 1019mb 51f 44f
6:50 10ft 12s 8s 16 20 mph 1018.9mb 51f 45f
6:20 11ft 14s 8s 18 22 mph 1019mb 51f 44f
5:50 12.5ft 14s 8s 18 22 mph 1018.8mb 51f 44f
5:20 12ft 14s 8s 22 27 mph 1018.8mb 51f 44f
4:50 12ft 11s 8s 22 27 mph 1018.4mb 51f 44f
4:20 12ft 11s 8s 27 34 mph 1018.6mb 51f 44f
3:50 12ft 11s 8s 31 40 mph 1018.4mb 51f 44f
3:20 11ft 12s 8s 25 31 mph 1018.4mb 51f 46f
2:50 12.5ft 14s 9s 25 29 mph 1018.2mb 51f 46f
2:20 11.5ft 11s 8s 22 27 mph 1018.1mb 51f 46f
1:50 11.5ft 15s 9s 18 22 mph 1018mb 51f 46f
1:20 12ft 11s 8s 18 22 mph 1017.9mb 51f 45f
12:50 12.5ft 13s 8s 16 20 mph 1017.9mb 51f 45f
12:20 11.5ft 15s 8s 22 27 mph 1017.8mb 51f 45f
11:50 12ft 12s 8s 27 34 mph 1018mb 51f 45f
11:20 11.5ft 15s 8s 27 36 mph 1018.1mb 51f 45f
10:50 11ft 11s 8s 22 27 mph 1018.3mb 51f 44f
10:20 11ft 15s 9s 18 22 mph 1018.1mb 51f 44f
9:50 11ft 15s 9s 18 22 mph 1017.7mb 51f 44f
9:20 11ft 14s 9s 18 22 mph 1017.4mb 51f 44f
8:50 11ft 11s 9s 16 20 mph 1017.2mb 51f 44f
8:20 11ft 14s 9s 16 18 mph 1017.1mb 51f 43f
7:50 11.5ft 14s 9s 16 20 mph 1016.9mb 51f 43f
7:20 11ft 15s 8s 13 18 mph 1016.4mb 51f 43f
6:50 11ft 13s 8s 20 25 mph 1016.2mb 51f 44f
6:20 11ft 15s 8s 25 29 mph 1015.8mb 51f 45f
5:50 11ft 15s 8s 22 27 mph 1015.7mb 51f 45f
5:20 11ft 13s 8s 25 29 mph 1015.7mb 51f 46f
4:50 12ft 14s 8s 25 31 mph 1015.8mb 51f 45f
4:20 10.5ft 14s 8s 25 31 mph 1015.9mb 51f 45f
3:50 12ft 14s 8s 25 27 mph 1016.3mb 51f 44f
3:20 12ft 14s 8s 22 29 mph 1016.9mb 51f 41f
2:50 11.5ft 11s 8s 20 25 mph 1016.7mb 51f 44f
2:20 12ft 14s 8s 25 29 mph 1016.7mb 51f 44f
1:50 12ft 11s 9s 22 29 mph 1016.7mb 52f 45f
1:20 11ft 14s 9s 20 31 mph 1017mb 52f 44f
12:50 10.5ft 14s 8s 16 22 mph 1017.3mb 52f 46f
12:20 12ft 14s 9s 25 31 mph 1017.4mb 52f 45f
Sa 12/03 11:50 12ft 14s 9s 20 25 mph 1017.7mb 52f 46f
11:20 12.5ft 15s 10s 13 18 mph 1017.8mb 52f 44f
10:50 10.5ft 12s 9s 16 18 mph 1017.9mb 52f 45f
10:20 12ft 14s 9s 20 27 mph 1018.2mb 52f 45f
9:50 11.5ft 11s 9s 25 31 mph 1018.2mb 51f 45f
9:20 12ft 14s 9s 16 20 mph 1018.4mb 51f 46f
8:50 11.5ft 15s 9s 20 25 mph 1018.5mb 51f 46f
8:20 11.5ft 16s 9s 22 27 mph 1018.8mb 51f 46f
7:50 11.5ft 15s 9s 20 38 mph 1018.7mb 51f 47f
7:20 11.5ft 16s 9s 18 22 mph 1018.8mb 51f 47f
6:50 11.5ft 14s 9s 22 27 mph 1019mb 51f 47f
6:20 12ft 15s 9s 25 29 mph 1019.2mb 51f 47f
5:50 13ft 15s 10s 16 20 mph 1019.6mb 51f 48f
5:20 12ft 16s 9s 16 20 mph 1019.9mb 51f 47f
4:50 12ft 16s 9s 18 22 mph 1020.3mb 51f 48f
4:20 12.5ft 16s 9s 20 25 mph 1020.6mb 51f 48f
3:50 12.5ft 16s 9s 16 22 mph 1020.8mb 51f 49f
3:20 14ft 16s 10s 18 25 mph 1021.2mb 51f 48f
2:50 13.5ft 16s 9s 16 20 mph 1021.3mb 51f 49f
2:20 12ft 15s 9s 13 18 mph 1021.6mb 51f 48f
1:50 13ft 13s 9s 16 22 mph 1022.2mb 51f 47f
1:20 12.5ft 16s 9s 18 25 mph 1022.5mb 51f 51f
12:50 12.5ft 16s 10s 16 22 mph 1022.6mb 51f 50f
12:20 15ft 15s 10s 16 22 mph 1023.3mb 51f 50f
11:50 13ft 15s 10s 9 18 mph 1023.6mb 51f 49f
11:20 14ft 14s 10s 9 16 mph 1023.8mb 51f 49f
10:50 13ft 16s 10s 13 18 mph 1023.6mb 51f 49f
10:20 14ft 14s 10s 20 25 mph 1023.7mb 51f 49f
9:50 13ft 15s 10s 13 18 mph 1023.8mb 52f 50f
9:20 14ft 16s 10s 9 13 mph 1023.4mb 51f 49f
8:50 12ft 11s 9s 11 13 mph 1023.6mb 51f 48f
8:20 13ft 13s 10s 16 22 mph 1023.1mb 51f 51f
7:50 14ft 16s 10s 11 13 mph 1023.1mb 51f 50f
7:20 15ft 15s 11s 13 18 mph 1023.6mb 51f 49f
6:50 14.5ft 16s 11s 9 13 mph 1023.7mb 52f 50f
6:20 14.5ft 16s 10s 11 13 mph 1023.6mb 51f 49f
5:50 13.5ft 17s 10s 20 27 mph 1022.9mb 52f 50f
5:20 14ft 15s  -  16 22 mph 1022.9mb 52f 50f
4:50 14ft 16s 10s 9 11 mph 1022.9mb 52f 50f
4:20 15.5ft 16s 10s 9 13 mph 1022.9mb 52f 50f
3:50 15ft 16s 10s 11 16 mph 1023mb 52f 49f
3:20 14ft 13s 9s 11 13 mph 1022.8mb 52f 49f
2:50 14ft 17s 9s 4 9 mph 1022.7mb 52f 49f
2:20 14ft 17s 9s 9 11 mph 1022.5mb 52f 49f
1:50 14.5ft 16s 9s 18 27 mph 1022.4mb 52f 51f
1:20 15.5ft 17s 10s 18 25 mph 1022mb 52f 50f
12:50 14ft 12s 9s 16 20 mph 1022.1mb 52f 49f
12:20 14ft 12s 10s 16 18 mph 1022mb 52f 49f
Fr 12/02 11:50 14ft 13s 10s 16 18 mph 1021.9mb 52f 50f
11:20 13ft 12s 9s 16 20 mph 1021.7mb 52f 50f
10:50 12ft 13s 9s 16 20 mph 1021.2mb 52f 49f
10:20 12ft 13s 9s 22 29 mph 1020.5mb 52f 51f
9:50 12ft 12s 9s 13 22 mph 1020.5mb 52f 51f
9:20 11ft 12s 9s 16 20 mph 1020.2mb 52f 50f
8:50 11ft 13s 9s 20 27 mph 1019.8mb 52f 51f
8:20 10ft 12s 8s 16 25 mph 1020mb 52f 48f
7:50 11ft 12s 9s 20 25 mph 1019.2mb 52f 52f
7:20 11.5ft 13s 9s 11 16 mph 1018.8mb 52f 51f
6:50 11.5ft 12s 8s 20 25 mph 1018.6mb 52f 50f
6:20 11ft 12s 8s 18 20 mph 1018.6mb 52f 51f
5:50 10.5ft 13s 8s 20 27 mph 1018.2mb 52f 52f
5:20 11ft 11s 8s 18 22 mph 1017.8mb 52f 52f
4:50 11ft 11s 8s 22 29 mph 1017.6mb 52f 52f
4:20 10.5ft 12s 8s 22 31 mph 1017.4mb 52f 52f
3:50 10.5ft 12s 8s 20 27 mph 1017.2mb 52f 53f
3:20 11ft 11s 8s 20 25 mph 1017.3mb 52f 52f
2:50 10ft 11s 7s 16 20 mph 1017mb 52f 52f
2:20 10ft 12s 7s 22 27 mph 1017mb 52f 51f
1:50 10.5ft 8s 7s 29 36 mph 1016.7mb 52f 52f
1:20 11ft 8s 8s 20 27 mph 1016.7mb 52f 53f
12:50 11ft 7s 7s 16 20 mph 1016.9mb 52f 52f
12:20 10ft 8s 7s 29 36 mph 1016.2mb 52f 52f
11:50 10.5ft 7s 7s 29 34 mph 1016.7mb 52f 52f
11:20 10ft 8s 7s 29 36 mph 1017.2mb 52f 53f
10:50 10ft 12s 7s 29 36 mph 1017.5mb 52f 52f
10:20 10ft 12s 7s 25 31 mph 1017.9mb 52f 51f
9:50 9.5ft 12s 7s 25 31 mph 1018.2mb 52f 51f
9:20 9ft 13s 7s 25 31 mph 1018.5mb 52f 51f
8:50 9ft 12s 7s 20 27 mph 1019.3mb 52f 51f
8:20 9ft 11s 7s 18 22 mph 1019.9mb 52f 51f